Main page
METAR-TAF:

METAR-TAF

Airports :

Chita, Russia

Kadala Airport

latitude: 52-05N, longitude: 113-29E, elevation: 685 m

Current weather observation

The report was made 25 minutes ago, at 21:30 UTC
Wind 4 kt from the South
Temperature -20°C
Humidity 77%
Pressure 1019 hPa
Visibility 10 km or more

METAR: UIAA 192130Z 19002MPS 9999 NSC M20/M23 Q1019 R29/018165 NOSIG RMK QFE706/0941

Time: 06:55 (21:55 UTC)

Forecast

The report was made 1 hour and 55 minutes ago, at 20:00 UTC
Forecast valid from 19 at 21 UTC to 20 at 21 UTC
Wind 6 kt from the South/Southwest with gusts up to 16 kt
Visibility 10 km or more
Temporary
from 20 at 00 UTC to 20 at 10 UTC
Wind 10 kt from the West with gusts up to 23 kt

TAF: UIAA 192000Z 1921/2021 20003G08MPS 9999 NSC TEMPO 2000/2010 27005G12MPS

Weather observations and forecasts of more than 4000 airports (METAR and TAF reports).

The available stations are represented by yellow and red dots on the map.

Hover mouse over dot to see the name of the station.

Then click to see weather observations and forecasts.

To change the map : click on the green buttons with a black cross to zoom in, on the green button with a dash to zoom out, or on the green arrows for adjacent maps.


METAR-TAF: